createdAt,value
2022-12-22T00:02:19.814Z,23.58
2022-12-22T00:05:06.922Z,22.77
2022-12-22T00:07:52.861Z,22.08
2022-12-22T00:10:38.632Z,21.42
2022-12-22T00:13:24.312Z,21.38
2022-12-22T00:16:09.682Z,20.42
2022-12-22T00:18:55.510Z,19.40
2022-12-22T00:21:41.023Z,20.08
2022-12-22T00:24:26.943Z,19.92
2022-12-22T00:27:12.606Z,19.77
2022-12-22T00:30:00.096Z,19.10
2022-12-22T00:32:51.616Z,18.88
2022-12-22T00:35:42.139Z,19.20
2022-12-22T00:38:36.425Z,19.05
2022-12-22T00:41:22.089Z,19.02
2022-12-22T00:44:07.743Z,20.60
2022-12-22T00:46:55.635Z,19.48
2022-12-22T00:49:43.311Z,20.77
2022-12-22T00:52:29.018Z,20.52
2022-12-22T00:55:14.643Z,20.48
2022-12-22T00:58:00.523Z,20.25
2022-12-22T01:00:46.319Z,20.38
2022-12-22T01:03:32.052Z,20.33
2022-12-22T01:06:19.420Z,20.70
2022-12-22T01:09:05.025Z,19.35
2022-12-22T01:11:51.688Z,19.75
2022-12-22T01:14:37.216Z,20.67
2022-12-22T01:17:22.909Z,20.15
2022-12-22T01:20:08.637Z,20.88
2022-12-22T01:22:54.235Z,21.90
2022-12-22T01:25:39.680Z,21.60
2022-12-22T01:28:25.430Z,21.85
2022-12-22T01:31:11.040Z,21.90
2022-12-22T01:33:56.678Z,21.45
2022-12-22T01:36:42.296Z,20.05
2022-12-22T01:39:27.944Z,21.70
2022-12-22T01:42:13.540Z,22.38
2022-12-22T01:44:59.268Z,23.75
2022-12-22T01:47:48.949Z,25.48
2022-12-22T01:50:53.097Z,25.15
2022-12-22T01:53:43.682Z,23.13
2022-12-22T01:56:30.102Z,23.45
2022-12-22T01:59:18.972Z,24.05
2022-12-22T02:02:05.032Z,23.83
2022-12-22T02:04:59.283Z,22.42
2022-12-22T02:08:00.590Z,22.67
2022-12-22T02:11:12.099Z,23.52
2022-12-22T02:14:30.394Z,22.35
2022-12-22T02:17:30.197Z,22.80
2022-12-22T02:20:39.943Z,22.73
2022-12-22T02:23:44.075Z,22.75
2022-12-22T02:26:41.569Z,23.23
2022-12-22T02:29:27.203Z,23.90
2022-12-22T02:32:12.938Z,24.10
2022-12-22T02:34:58.518Z,24.25
2022-12-22T02:37:52.938Z,25.38
2022-12-22T02:40:51.268Z,24.42
2022-12-22T02:44:00.545Z,23.40
2022-12-22T02:46:52.791Z,23.50
2022-12-22T02:49:41.983Z,24.75
2022-12-22T02:52:50.356Z,23.65
2022-12-22T02:55:36.197Z,25.23
2022-12-22T02:58:22.388Z,24.60
2022-12-22T03:01:08.056Z,24.17
2022-12-22T03:03:54.266Z,22.95
2022-12-22T03:06:39.668Z,22.63
2022-12-22T03:09:25.340Z,23.55
2022-12-22T03:12:10.915Z,24.20
2022-12-22T03:14:56.502Z,23.15
2022-12-22T03:17:42.157Z,23.23
2022-12-22T03:20:27.692Z,25.15
2022-12-22T03:23:13.305Z,21.60
2022-12-22T03:25:55.388Z,22.45
2022-12-22T03:31:01.517Z,21.90
2022-12-22T03:33:29.409Z,21.85
2022-12-22T03:35:56.315Z,22.85
2022-12-22T03:38:23.409Z,24.80
2022-12-22T03:40:50.568Z,23.42
2022-12-22T03:43:37.332Z,25.13
2022-12-22T03:46:10.262Z,25.00
2022-12-22T03:48:37.093Z,25.80
2022-12-22T03:51:04.182Z,24.05
2022-12-22T03:53:31.023Z,22.45
2022-12-22T03:56:01.293Z,22.13
2022-12-22T03:58:32.777Z,21.63
2022-12-22T04:01:07.963Z,21.70
2022-12-22T04:03:35.068Z,21.55
2022-12-22T04:06:02.023Z,21.23
2022-12-22T04:08:28.866Z,21.73
2022-12-22T04:11:14.494Z,21.58
2022-12-22T04:13:41.467Z,21.85
2022-12-22T04:16:08.359Z,22.00
2022-12-22T04:18:35.458Z,22.38
2022-12-22T04:21:02.361Z,22.52
2022-12-22T04:23:29.356Z,22.17
2022-12-22T04:25:56.259Z,23.60
2022-12-22T04:28:23.220Z,23.55
2022-12-22T04:30:51.204Z,22.27
2022-12-22T04:33:18.148Z,19.90
2022-12-22T04:35:45.161Z,23.98
2022-12-22T04:38:12.041Z,23.70
2022-12-22T04:40:38.978Z,23.20
2022-12-22T04:43:05.938Z,24.48
2022-12-22T04:45:33.062Z,20.80
2022-12-22T04:48:00.043Z,22.48
2022-12-22T04:50:27.149Z,22.80
2022-12-22T04:52:54.049Z,24.10
2022-12-22T04:55:21.058Z,25.88
2022-12-22T04:57:47.904Z,25.20
2022-12-22T05:00:15.602Z,25.20
2022-12-22T05:02:42.737Z,23.52
2022-12-22T05:05:10.103Z,25.83
2022-12-22T05:07:37.527Z,27.08
2022-12-22T05:10:05.308Z,25.52
2022-12-22T05:12:51.035Z,26.83
2022-12-22T05:15:18.142Z,25.98
2022-12-22T05:17:45.138Z,23.58
2022-12-22T05:20:12.332Z,26.10
2022-12-22T05:22:39.306Z,26.85
2022-12-22T05:25:06.796Z,25.30
2022-12-22T05:27:33.754Z,25.70
2022-12-22T05:30:00.677Z,24.02
2022-12-22T05:32:27.587Z,24.50
2022-12-22T05:34:54.572Z,23.52
2022-12-22T05:37:21.498Z,25.75
2022-12-22T05:39:48.345Z,26.75
2022-12-22T05:42:35.255Z,25.52
2022-12-22T05:45:06.667Z,25.92
2022-12-22T05:47:34.424Z,25.58
2022-12-22T05:50:01.445Z,25.42
2022-12-22T05:52:28.546Z,26.23
2022-12-22T05:54:55.449Z,25.27
2022-12-22T05:57:22.940Z,26.00
2022-12-22T05:59:49.913Z,26.08
2022-12-22T06:02:17.047Z,26.08
2022-12-22T06:04:44.199Z,26.52
2022-12-22T06:07:11.096Z,25.23
2022-12-22T06:09:38.110Z,26.92
2022-12-22T06:12:05.666Z,26.08
2022-12-22T06:14:32.641Z,26.48
2022-12-22T06:16:59.516Z,25.25
2022-12-22T06:19:26.542Z,25.65
2022-12-22T06:21:53.395Z,25.23
2022-12-22T06:24:20.275Z,24.15
2022-12-22T06:26:47.214Z,24.30
2022-12-22T06:29:14.290Z,22.80
2022-12-22T06:31:41.356Z,23.35
2022-12-22T06:34:10.023Z,23.33
2022-12-22T06:36:38.622Z,23.77
2022-12-22T06:39:06.721Z,24.73
2022-12-22T06:41:52.366Z,23.45
2022-12-22T06:44:19.403Z,22.63
2022-12-22T06:46:46.337Z,22.70
2022-12-22T06:49:13.327Z,22.83
2022-12-22T06:51:40.215Z,22.55
2022-12-22T06:54:07.227Z,22.88
2022-12-22T06:56:34.172Z,22.02
2022-12-22T06:59:01.562Z,21.30
2022-12-22T07:01:28.581Z,22.38
2022-12-22T07:03:55.905Z,22.15
2022-12-22T07:06:23.559Z,23.33
2022-12-22T07:08:50.743Z,22.80
2022-12-22T07:11:17.826Z,23.38
2022-12-22T07:13:45.137Z,23.55
2022-12-22T07:16:12.315Z,23.20
2022-12-22T07:18:41.336Z,25.80
2022-12-22T07:21:11.461Z,26.10
2022-12-22T07:23:38.972Z,25.73
2022-12-22T07:26:07.646Z,27.38
2022-12-22T07:28:36.775Z,28.00
2022-12-22T07:31:04.941Z,28.20
2022-12-22T07:33:32.270Z,26.38
2022-12-22T07:36:04.420Z,25.95
2022-12-22T07:38:36.598Z,26.52
2022-12-22T07:41:05.531Z,26.92
2022-12-22T07:43:32.886Z,27.85
2022-12-22T07:45:59.767Z,45.28
2022-12-22T07:48:45.311Z,33.00
2022-12-22T07:51:12.182Z,26.75
2022-12-22T07:53:40.134Z,26.92
2022-12-22T07:56:07.402Z,28.02
2022-12-22T07:58:34.385Z,31.92
2022-12-22T08:01:01.918Z,31.27
2022-12-22T08:03:29.371Z,30.92
2022-12-22T08:05:56.517Z,29.83
2022-12-22T08:08:23.495Z,30.38
2022-12-22T08:10:50.586Z,32.38
2022-12-22T08:13:17.587Z,31.42
2022-12-22T08:15:44.729Z,33.40
2022-12-22T08:18:11.765Z,29.52
2022-12-22T08:20:38.849Z,30.58
2022-12-22T08:23:06.892Z,30.20
2022-12-22T08:25:34.422Z,28.25
2022-12-22T08:28:01.772Z,27.15
2022-12-22T08:30:28.973Z,28.60
2022-12-22T08:32:55.918Z,27.00
2022-12-22T08:35:23.092Z,26.27
2022-12-22T08:37:50.983Z,26.50
2022-12-22T08:40:26.368Z,25.83
2022-12-22T08:42:59.384Z,26.38
2022-12-22T08:45:26.622Z,25.75
2022-12-22T08:47:53.541Z,25.55
2022-12-22T08:50:20.565Z,25.40
2022-12-22T08:52:47.543Z,25.75
2022-12-22T08:55:14.609Z,25.88
2022-12-22T08:57:42.055Z,27.45
2022-12-22T09:00:13.318Z,24.45
2022-12-22T09:02:40.728Z,23.98
2022-12-22T09:05:08.206Z,24.35
2022-12-22T09:07:35.252Z,23.92
2022-12-22T09:10:02.246Z,24.45
2022-12-22T09:12:29.240Z,25.27
2022-12-22T09:14:56.211Z,24.90
2022-12-22T09:17:23.263Z,25.48
2022-12-22T09:19:50.157Z,24.35
2022-12-22T09:22:21.729Z,23.10
2022-12-22T09:24:52.213Z,23.70
2022-12-22T09:27:19.083Z,22.67
2022-12-22T09:29:46.135Z,23.13
2022-12-22T09:32:13.155Z,23.27
2022-12-22T09:34:40.214Z,23.67
2022-12-22T09:37:07.182Z,22.52
2022-12-22T09:39:34.099Z,23.10
2022-12-22T09:42:01.463Z,23.65
2022-12-22T09:44:40.247Z,23.13
2022-12-22T09:47:19.819Z,22.85
2022-12-22T09:49:47.018Z,22.08
2022-12-22T09:52:45.336Z,24.25
2022-12-22T09:55:24.463Z,23.52
2022-12-22T09:57:53.187Z,22.23
2022-12-22T10:00:23.275Z,22.30
2022-12-22T10:03:12.417Z,22.52
2022-12-22T10:05:47.513Z,22.30
2022-12-22T10:08:40.967Z,22.55
2022-12-22T10:11:13.994Z,21.35
2022-12-22T10:13:41.156Z,20.27
2022-12-22T10:16:27.537Z,22.25
2022-12-22T10:19:13.868Z,21.45
2022-12-22T10:21:47.039Z,19.60
2022-12-22T10:24:35.423Z,21.35
2022-12-22T10:27:04.550Z,19.55
2022-12-22T10:29:32.537Z,19.17
2022-12-22T10:32:02.687Z,20.70
2022-12-22T10:34:30.292Z,19.77
2022-12-22T10:37:00.513Z,19.85
2022-12-22T10:39:30.217Z,19.27
2022-12-22T10:42:01.270Z,19.60
2022-12-22T10:44:34.908Z,19.83
2022-12-22T10:47:21.598Z,18.80
2022-12-22T10:49:50.188Z,18.60
2022-12-22T10:52:30.549Z,20.20
2022-12-22T10:55:22.423Z,20.15
2022-12-22T10:57:51.247Z,20.48
2022-12-22T11:00:29.769Z,20.13
2022-12-22T11:03:01.824Z,19.58
2022-12-22T11:05:29.749Z,20.60
2022-12-22T11:07:57.802Z,20.65
2022-12-22T11:10:43.435Z,21.20
2022-12-22T11:13:35.857Z,21.02
2022-12-22T11:16:03.508Z,20.17
2022-12-22T11:18:55.182Z,21.58
2022-12-22T11:21:27.951Z,21.88
2022-12-22T11:24:13.703Z,20.80
2022-12-22T11:27:08.504Z,20.80
2022-12-22T11:30:01.296Z,20.27
2022-12-22T11:33:00.923Z,21.50
2022-12-22T11:35:30.753Z,21.58
2022-12-22T11:38:18.574Z,21.38
2022-12-22T11:40:51.995Z,21.73
2022-12-22T11:43:18.969Z,21.77
2022-12-22T11:46:04.366Z,21.70
2022-12-22T11:49:06.043Z,21.90
2022-12-22T11:51:32.985Z,21.40
2022-12-22T11:54:10.829Z,22.85
2022-12-22T11:56:41.952Z,22.35
2022-12-22T11:59:30.632Z,22.75
2022-12-22T12:02:19.219Z,22.98
2022-12-22T12:05:19.624Z,22.83
2022-12-22T12:07:59.264Z,22.27
2022-12-22T12:10:35.451Z,26.25
2022-12-22T12:13:28.854Z,32.88
2022-12-22T12:16:10.003Z,31.08
2022-12-22T12:19:26.821Z,25.17
2022-12-22T12:21:59.018Z,24.50
2022-12-22T12:24:34.151Z,22.25
2022-12-22T12:27:22.794Z,25.70
2022-12-22T12:30:28.544Z,31.40
2022-12-22T12:33:30.217Z,25.92
2022-12-22T12:36:05.714Z,22.00
2022-12-22T12:39:08.920Z,21.80
2022-12-22T12:42:11.228Z,23.00
2022-12-22T12:44:38.889Z,23.38
2022-12-22T12:47:25.963Z,22.50
2022-12-22T12:50:12.414Z,23.05
2022-12-22T12:52:39.547Z,22.58
2022-12-22T12:55:34.307Z,23.33
2022-12-22T12:58:04.051Z,23.30
2022-12-22T13:00:34.208Z,21.45
2022-12-22T13:03:01.321Z,21.50
2022-12-22T13:05:33.299Z,20.77
2022-12-22T13:08:25.870Z,21.38
2022-12-22T13:10:52.892Z,20.35
2022-12-22T13:13:25.687Z,21.75
2022-12-22T13:16:05.101Z,22.70
2022-12-22T13:18:34.871Z,23.60
2022-12-22T13:24:26.276Z,24.70
2022-12-22T13:26:55.810Z,24.20
2022-12-22T13:29:23.038Z,24.73
2022-12-22T13:32:00.767Z,24.08
2022-12-22T13:34:31.044Z,23.35
2022-12-22T13:37:00.413Z,24.85
2022-12-22T13:39:27.459Z,25.80
2022-12-22T13:41:54.936Z,25.73
2022-12-22T13:44:34.435Z,26.17
2022-12-22T13:47:07.801Z,25.27
2022-12-22T13:50:07.152Z,26.08
2022-12-22T13:52:23.323Z,27.75
2022-12-22T13:54:50.512Z,27.52
2022-12-22T13:57:21.034Z,29.55
2022-12-22T13:59:49.853Z,26.88
2022-12-22T14:02:19.926Z,28.73
2022-12-22T14:05:09.743Z,29.17
2022-12-22T14:07:36.962Z,30.77
2022-12-22T14:10:04.359Z,29.27
2022-12-22T14:12:36.211Z,30.67
2022-12-22T14:15:03.777Z,29.00
2022-12-22T14:17:34.361Z,28.15
2022-12-22T14:20:12.703Z,28.92
2022-12-22T14:22:51.648Z,28.75
2022-12-22T14:25:25.709Z,29.15
2022-12-22T14:27:54.646Z,30.15
2022-12-22T14:30:24.576Z,30.02
2022-12-22T14:32:55.941Z,28.38
2022-12-22T14:35:26.472Z,29.63
2022-12-22T14:38:13.368Z,29.63
2022-12-22T14:40:42.708Z,29.98
2022-12-22T14:43:22.016Z,27.95
2022-12-22T14:45:50.709Z,27.70
2022-12-22T14:48:31.318Z,26.02
2022-12-22T14:50:58.715Z,26.25
2022-12-22T14:53:30.643Z,26.80
2022-12-22T14:55:57.682Z,25.70
2022-12-22T14:58:43.671Z,24.98
2022-12-22T15:01:19.457Z,25.40
2022-12-22T15:03:59.966Z,25.17
2022-12-22T15:06:27.056Z,24.25
2022-12-22T15:09:06.770Z,23.55
2022-12-22T15:11:34.765Z,24.55
2022-12-22T15:14:01.862Z,25.90
2022-12-22T15:16:28.879Z,24.30
2022-12-22T15:18:56.155Z,25.05
2022-12-22T15:21:23.193Z,40.80
2022-12-22T15:23:50.152Z,64.55
2022-12-22T15:26:17.663Z,55.70
2022-12-22T15:28:44.805Z,42.85
2022-12-22T15:31:14.910Z,25.58
2022-12-22T15:33:42.478Z,27.75
2022-12-22T15:36:14.735Z,27.33
2022-12-22T15:38:42.655Z,27.38
2022-12-22T15:41:09.694Z,80.00
2022-12-22T15:43:57.332Z,46.40
2022-12-22T15:46:24.923Z,47.33
2022-12-22T15:48:52.207Z,42.65
2022-12-22T15:51:25.466Z,52.00
2022-12-22T15:53:53.654Z,54.47
2022-12-22T15:56:24.203Z,40.33
2022-12-22T15:58:51.597Z,35.53
2022-12-22T16:01:18.630Z,34.15
2022-12-22T16:03:45.773Z,33.28
2022-12-22T16:06:14.828Z,31.52
2022-12-22T16:08:43.952Z,31.27
2022-12-22T16:11:11.134Z,31.70
2022-12-22T16:13:39.063Z,29.23
2022-12-22T16:16:07.491Z,29.00
2022-12-22T16:18:35.503Z,29.58
2022-12-22T16:21:18.021Z,27.33
2022-12-22T16:23:47.471Z,29.17
2022-12-22T16:26:17.050Z,30.95
2022-12-22T16:28:44.275Z,30.52
2022-12-22T16:31:24.945Z,28.52
2022-12-22T16:33:52.731Z,30.60
2022-12-22T16:36:20.060Z,28.02
2022-12-22T16:38:47.755Z,26.67
2022-12-22T16:41:25.085Z,27.38
2022-12-22T16:43:54.065Z,28.80
2022-12-22T16:46:22.571Z,28.45
2022-12-22T16:48:54.603Z,28.02
2022-12-22T16:51:25.846Z,27.48
2022-12-22T16:53:52.900Z,27.67
2022-12-22T16:56:23.592Z,28.13
2022-12-22T16:58:50.880Z,27.23
2022-12-22T17:01:51.125Z,26.70
2022-12-22T17:04:27.033Z,26.73
2022-12-22T17:06:55.466Z,26.17
2022-12-22T17:09:37.867Z,27.05
2022-12-22T17:12:05.334Z,27.27
2022-12-22T17:14:35.295Z,28.10
2022-12-22T17:17:02.229Z,28.88
2022-12-22T17:19:32.034Z,29.75
2022-12-22T17:21:59.238Z,31.60
2022-12-22T17:24:28.429Z,31.80
2022-12-22T17:26:58.924Z,37.83
2022-12-22T17:29:26.034Z,36.00
2022-12-22T17:31:56.836Z,38.03
2022-12-22T17:34:24.365Z,37.72
2022-12-22T17:36:52.045Z,36.63
2022-12-22T17:39:21.410Z,38.33
2022-12-22T17:41:56.171Z,38.22
2022-12-22T17:44:25.836Z,38.42
2022-12-22T17:46:53.222Z,37.50
2022-12-22T17:49:22.554Z,37.90
2022-12-22T17:51:50.003Z,37.60
2022-12-22T17:54:27.089Z,38.55
2022-12-22T17:56:58.988Z,39.25
2022-12-22T18:01:53.218Z,39.25
2022-12-22T18:04:20.410Z,43.20
2022-12-22T18:06:48.125Z,42.38
2022-12-22T18:09:24.145Z,41.05
2022-12-22T18:11:51.560Z,57.85
2022-12-22T18:14:23.968Z,58.63
2022-12-22T18:16:51.278Z,56.25
2022-12-22T18:19:18.296Z,42.97
2022-12-22T18:21:45.325Z,39.15
2022-12-22T18:24:17.222Z,47.53
2022-12-22T18:29:18.159Z,49.80
2022-12-22T18:31:45.825Z,38.35
2022-12-22T18:34:13.055Z,35.58
2022-12-22T18:36:42.750Z,39.67
2022-12-22T18:39:17.931Z,35.63
2022-12-22T18:41:45.006Z,35.15
2022-12-22T18:44:18.009Z,34.97
2022-12-22T18:46:46.059Z,32.95
2022-12-22T18:49:13.470Z,33.90
2022-12-22T18:51:42.349Z,32.80
2022-12-22T18:54:33.563Z,32.72
2022-12-22T18:57:00.767Z,30.87
2022-12-22T18:59:29.896Z,27.25
2022-12-22T19:02:03.019Z,31.73
2022-12-22T19:04:31.153Z,30.85
2022-12-22T19:06:58.279Z,30.35
2022-12-22T19:09:27.141Z,29.17
2022-12-22T19:11:54.346Z,32.17
2022-12-22T19:14:22.389Z,29.33
2022-12-22T19:16:50.453Z,30.40
2022-12-22T19:19:23.222Z,29.73
2022-12-22T19:21:56.303Z,28.30
2022-12-22T19:24:25.189Z,29.33
2022-12-22T19:26:53.925Z,30.10
2022-12-22T19:29:21.926Z,26.55
2022-12-22T19:31:52.242Z,28.63
2022-12-22T19:34:20.844Z,27.13
2022-12-22T19:36:49.227Z,25.98
2022-12-22T19:39:18.785Z,29.35
2022-12-22T19:41:52.628Z,28.17
2022-12-22T19:44:31.031Z,26.85
2022-12-22T19:46:59.499Z,28.67
2022-12-22T19:49:27.759Z,29.63
2022-12-22T19:51:58.400Z,29.15
2022-12-22T19:54:25.535Z,29.33
2022-12-22T19:56:55.433Z,28.13
2022-12-22T19:59:38.784Z,27.75
2022-12-22T20:02:23.772Z,27.98
2022-12-22T20:04:51.623Z,26.42
2022-12-22T20:07:24.024Z,26.55
2022-12-22T20:09:51.328Z,25.73
2022-12-22T20:12:25.574Z,42.20
2022-12-22T20:14:53.209Z,42.60
2022-12-22T20:17:20.623Z,31.02
2022-12-22T20:19:47.663Z,26.05
2022-12-22T20:22:19.525Z,31.77
2022-12-22T20:27:33.976Z,32.72
2022-12-22T20:30:01.275Z,24.58
2022-12-22T20:32:28.726Z,23.48
2022-12-22T20:34:56.222Z,28.13
2022-12-22T20:37:23.201Z,22.73
2022-12-22T20:39:50.122Z,20.15
2022-12-22T20:42:22.652Z,20.88
2022-12-22T20:45:02.642Z,24.23
2022-12-22T20:47:33.683Z,22.58
2022-12-22T20:50:00.814Z,21.50
2022-12-22T20:52:27.712Z,20.40
2022-12-22T20:54:55.935Z,21.52
2022-12-22T20:57:23.558Z,19.50
2022-12-22T20:59:56.134Z,22.88
2022-12-22T21:02:29.478Z,23.70
2022-12-22T21:04:57.136Z,26.80
2022-12-22T21:07:24.158Z,26.33
2022-12-22T21:09:51.936Z,25.45
2022-12-22T21:12:18.894Z,24.08
2022-12-22T21:14:46.157Z,25.77
2022-12-22T21:17:17.357Z,24.27
2022-12-22T21:19:44.698Z,24.55
2022-12-22T21:22:12.340Z,23.92
2022-12-22T21:24:40.141Z,24.30
2022-12-22T21:27:07.167Z,24.33
2022-12-22T21:29:34.067Z,25.23
2022-12-22T21:32:01.071Z,22.75
2022-12-22T21:34:27.927Z,21.85
2022-12-22T21:37:00.393Z,24.17
2022-12-22T21:39:32.929Z,23.70
2022-12-22T21:42:04.783Z,24.25
2022-12-22T21:44:34.256Z,23.80
2022-12-22T21:47:01.594Z,25.27
2022-12-22T21:49:30.727Z,22.80
2022-12-22T21:51:57.704Z,23.67
2022-12-22T21:54:25.703Z,23.05
2022-12-22T21:56:53.749Z,19.38
2022-12-22T21:59:21.249Z,20.73
2022-12-22T22:01:48.402Z,20.58
2022-12-22T22:04:15.476Z,19.25
2022-12-22T22:06:42.519Z,18.60
2022-12-22T22:09:09.636Z,16.25
2022-12-22T22:11:59.220Z,14.55
2022-12-22T22:14:27.089Z,14.05
2022-12-22T22:16:54.421Z,13.10
2022-12-22T22:19:21.701Z,13.07
2022-12-22T22:21:48.933Z,10.70
2022-12-22T22:24:15.786Z,11.98
2022-12-22T22:26:45.439Z,11.38
2022-12-22T22:29:12.391Z,10.20
2022-12-22T22:31:40.616Z,10.48
2022-12-22T22:34:07.679Z,10.63
2022-12-22T22:36:34.637Z,10.82
2022-12-22T22:39:01.574Z,9.73
2022-12-22T22:41:35.256Z,9.85
2022-12-22T22:44:04.896Z,9.50
2022-12-22T22:46:31.822Z,8.45
2022-12-22T22:48:58.862Z,9.63
2022-12-22T22:51:25.857Z,10.07
2022-12-22T22:53:52.782Z,10.30
2022-12-22T22:56:19.716Z,10.90
2022-12-22T22:58:46.568Z,10.55
2022-12-22T23:01:13.425Z,10.55
2022-12-22T23:03:40.552Z,10.10
2022-12-22T23:06:10.522Z,7.85
2022-12-22T23:08:37.957Z,8.50
2022-12-22T23:11:05.851Z,7.97
2022-12-22T23:13:32.828Z,6.82
2022-12-22T23:16:02.024Z,6.07
2022-12-22T23:18:29.771Z,8.43
2022-12-22T23:21:04.198Z,7.65
2022-12-22T23:23:32.401Z,8.23
2022-12-22T23:25:59.577Z,7.63
2022-12-22T23:28:26.529Z,8.55
2022-12-22T23:30:53.874Z,8.50
2022-12-22T23:33:20.952Z,9.50
2022-12-22T23:35:48.958Z,8.77
2022-12-22T23:38:17.355Z,9.52
2022-12-22T23:40:53.658Z,8.85
2022-12-22T23:43:21.780Z,8.40
2022-12-22T23:45:48.893Z,9.98
2022-12-22T23:48:16.320Z,10.15
2022-12-22T23:50:46.212Z,10.18
2022-12-22T23:53:13.404Z,9.30
2022-12-22T23:55:47.383Z,10.25
2022-12-22T23:58:14.659Z,10.70
